sensor_id;sensor_type;location;lat;lon;timestamp;P1;durP1;ratioP1;P2;durP2;ratioP2
25627;SDS011;40915;50.826;4.356;2023-12-04T00:01:49;8.47;;;5.43;;
25627;SDS011;40915;50.826;4.356;2023-12-04T00:04:14;10.73;;;5.37;;
25627;SDS011;40915;50.826;4.356;2023-12-04T00:06:41;11.57;;;5.43;;
25627;SDS011;40915;50.826;4.356;2023-12-04T00:09:07;11.17;;;6.50;;
25627;SDS011;40915;50.826;4.356;2023-12-04T00:11:32;12.80;;;6.93;;
25627;SDS011;40915;50.826;4.356;2023-12-04T00:13:58;9.30;;;5.20;;
25627;SDS011;40915;50.826;4.356;2023-12-04T00:16:25;10.17;;;5.63;;
25627;SDS011;40915;50.826;4.356;2023-12-04T00:18:51;10.37;;;5.73;;
25627;SDS011;40915;50.826;4.356;2023-12-04T00:21:16;9.67;;;5.80;;
25627;SDS011;40915;50.826;4.356;2023-12-04T00:23:42;8.80;;;5.30;;
25627;SDS011;40915;50.826;4.356;2023-12-04T00:26:08;8.87;;;4.93;;
25627;SDS011;40915;50.826;4.356;2023-12-04T00:28:35;10.93;;;6.33;;
25627;SDS011;40915;50.826;4.356;2023-12-04T00:31:02;11.03;;;5.67;;
25627;SDS011;40915;50.826;4.356;2023-12-04T00:33:27;8.97;;;5.57;;
25627;SDS011;40915;50.826;4.356;2023-12-04T00:35:53;11.20;;;5.43;;
25627;SDS011;40915;50.826;4.356;2023-12-04T00:38:19;10.87;;;5.90;;
25627;SDS011;40915;50.826;4.356;2023-12-04T00:40:44;9.60;;;5.63;;
25627;SDS011;40915;50.826;4.356;2023-12-04T00:43:10;9.97;;;5.97;;
25627;SDS011;40915;50.826;4.356;2023-12-04T00:45:36;9.70;;;5.27;;
25627;SDS011;40915;50.826;4.356;2023-12-04T00:48:02;9.13;;;5.27;;
25627;SDS011;40915;50.826;4.356;2023-12-04T00:50:28;8.07;;;5.10;;
25627;SDS011;40915;50.826;4.356;2023-12-04T00:52:53;8.60;;;5.23;;
25627;SDS011;40915;50.826;4.356;2023-12-04T00:55:19;11.10;;;5.83;;
25627;SDS011;40915;50.826;4.356;2023-12-04T00:57:45;8.93;;;4.87;;
25627;SDS011;40915;50.826;4.356;2023-12-04T01:00:11;8.33;;;5.00;;
25627;SDS011;40915;50.826;4.356;2023-12-04T01:02:37;9.83;;;5.53;;
25627;SDS011;40915;50.826;4.356;2023-12-04T01:05:02;8.87;;;4.97;;
25627;SDS011;40915;50.826;4.356;2023-12-04T01:07:28;6.97;;;4.70;;
25627;SDS011;40915;50.826;4.356;2023-12-04T01:09:54;9.37;;;4.93;;
25627;SDS011;40915;50.826;4.356;2023-12-04T01:12:20;8.03;;;4.80;;
25627;SDS011;40915;50.826;4.356;2023-12-04T01:14:46;8.80;;;5.10;;
25627;SDS011;40915;50.826;4.356;2023-12-04T01:17:12;8.23;;;4.87;;
25627;SDS011;40915;50.826;4.356;2023-12-04T01:19:37;9.07;;;4.83;;
25627;SDS011;40915;50.826;4.356;2023-12-04T01:22:03;7.97;;;4.60;;
25627;SDS011;40915;50.826;4.356;2023-12-04T01:24:30;8.87;;;4.70;;
25627;SDS011;40915;50.826;4.356;2023-12-04T01:26:56;7.20;;;4.40;;
25627;SDS011;40915;50.826;4.356;2023-12-04T01:29:21;8.13;;;4.90;;
25627;SDS011;40915;50.826;4.356;2023-12-04T01:31:47;7.30;;;4.90;;
25627;SDS011;40915;50.826;4.356;2023-12-04T01:34:13;6.70;;;4.07;;
25627;SDS011;40915;50.826;4.356;2023-12-04T01:36:41;6.90;;;4.63;;
25627;SDS011;40915;50.826;4.356;2023-12-04T01:39:07;6.77;;;4.17;;
25627;SDS011;40915;50.826;4.356;2023-12-04T01:41:33;7.67;;;4.63;;
25627;SDS011;40915;50.826;4.356;2023-12-04T01:43:58;6.93;;;4.93;;
25627;SDS011;40915;50.826;4.356;2023-12-04T01:46:24;7.93;;;4.33;;
25627;SDS011;40915;50.826;4.356;2023-12-04T01:48:50;7.07;;;4.37;;
25627;SDS011;40915;50.826;4.356;2023-12-04T01:51:16;6.70;;;4.40;;
25627;SDS011;40915;50.826;4.356;2023-12-04T01:53:43;7.83;;;4.20;;
25627;SDS011;40915;50.826;4.356;2023-12-04T01:56:09;7.10;;;4.40;;
25627;SDS011;40915;50.826;4.356;2023-12-04T01:58:36;6.23;;;3.90;;
25627;SDS011;40915;50.826;4.356;2023-12-04T02:01:02;6.90;;;4.20;;
25627;SDS011;40915;50.826;4.356;2023-12-04T02:03:29;6.47;;;3.83;;
25627;SDS011;40915;50.826;4.356;2023-12-04T02:05:55;8.13;;;3.97;;
25627;SDS011;40915;50.826;4.356;2023-12-04T02:08:24;6.23;;;3.83;;
25627;SDS011;40915;50.826;4.356;2023-12-04T02:10:50;7.73;;;4.13;;
25627;SDS011;40915;50.826;4.356;2023-12-04T02:13:16;8.13;;;4.20;;
25627;SDS011;40915;50.826;4.356;2023-12-04T02:15:42;8.27;;;4.50;;
25627;SDS011;40915;50.826;4.356;2023-12-04T02:18:08;5.70;;;3.80;;
25627;SDS011;40915;50.826;4.356;2023-12-04T02:20:34;6.53;;;4.20;;
25627;SDS011;40915;50.826;4.356;2023-12-04T02:23:02;6.30;;;3.77;;
25627;SDS011;40915;50.826;4.356;2023-12-04T02:25:28;5.87;;;3.67;;
25627;SDS011;40915;50.826;4.356;2023-12-04T02:27:56;6.47;;;3.70;;
25627;SDS011;40915;50.826;4.356;2023-12-04T02:30:24;6.73;;;3.90;;
25627;SDS011;40915;50.826;4.356;2023-12-04T02:32:53;8.67;;;4.00;;
25627;SDS011;40915;50.826;4.356;2023-12-04T02:35:20;5.27;;;3.50;;
25627;SDS011;40915;50.826;4.356;2023-12-04T02:37:48;6.23;;;4.20;;
25627;SDS011;40915;50.826;4.356;2023-12-04T02:40:15;6.27;;;4.10;;
25627;SDS011;40915;50.826;4.356;2023-12-04T02:42:40;5.53;;;3.50;;
25627;SDS011;40915;50.826;4.356;2023-12-04T02:45:06;7.33;;;3.90;;
25627;SDS011;40915;50.826;4.356;2023-12-04T02:47:32;5.40;;;3.73;;
25627;SDS011;40915;50.826;4.356;2023-12-04T02:49:58;6.43;;;3.80;;
25627;SDS011;40915;50.826;4.356;2023-12-04T02:52:23;5.13;;;3.53;;
25627;SDS011;40915;50.826;4.356;2023-12-04T02:54:49;7.00;;;4.07;;
25627;SDS011;40915;50.826;4.356;2023-12-04T02:57:15;5.63;;;3.47;;
25627;SDS011;40915;50.826;4.356;2023-12-04T02:59:40;5.90;;;3.93;;
25627;SDS011;40915;50.826;4.356;2023-12-04T03:02:06;6.20;;;3.40;;
25627;SDS011;40915;50.826;4.356;2023-12-04T03:04:32;6.23;;;3.77;;
25627;SDS011;40915;50.826;4.356;2023-12-04T03:06:58;5.07;;;3.23;;
25627;SDS011;40915;50.826;4.356;2023-12-04T03:09:23;6.43;;;3.87;;
25627;SDS011;40915;50.826;4.356;2023-12-04T03:11:49;7.13;;;3.60;;
25627;SDS011;40915;50.826;4.356;2023-12-04T03:14:14;4.73;;;3.40;;
25627;SDS011;40915;50.826;4.356;2023-12-04T03:16:40;5.67;;;3.20;;
25627;SDS011;40915;50.826;4.356;2023-12-04T03:19:06;6.00;;;3.40;;
25627;SDS011;40915;50.826;4.356;2023-12-04T03:21:31;5.17;;;3.23;;
25627;SDS011;40915;50.826;4.356;2023-12-04T03:23:57;5.37;;;3.50;;
25627;SDS011;40915;50.826;4.356;2023-12-04T03:26:23;5.20;;;3.57;;
25627;SDS011;40915;50.826;4.356;2023-12-04T03:28:48;6.23;;;3.50;;
25627;SDS011;40915;50.826;4.356;2023-12-04T03:31:14;5.47;;;3.73;;
25627;SDS011;40915;50.826;4.356;2023-12-04T03:33:40;5.97;;;3.63;;
25627;SDS011;40915;50.826;4.356;2023-12-04T03:36:05;5.47;;;3.40;;
25627;SDS011;40915;50.826;4.356;2023-12-04T03:38:31;5.30;;;3.37;;
25627;SDS011;40915;50.826;4.356;2023-12-04T03:40:57;6.07;;;3.20;;
25627;SDS011;40915;50.826;4.356;2023-12-04T03:43:23;4.87;;;3.20;;
25627;SDS011;40915;50.826;4.356;2023-12-04T03:45:48;5.83;;;3.50;;
25627;SDS011;40915;50.826;4.356;2023-12-04T03:48:14;7.03;;;3.87;;
25627;SDS011;40915;50.826;4.356;2023-12-04T03:50:39;6.77;;;4.03;;
25627;SDS011;40915;50.826;4.356;2023-12-04T03:53:05;6.60;;;3.97;;
25627;SDS011;40915;50.826;4.356;2023-12-04T03:55:31;5.70;;;3.57;;
25627;SDS011;40915;50.826;4.356;2023-12-04T03:57:56;5.27;;;3.50;;
25627;SDS011;40915;50.826;4.356;2023-12-04T04:00:23;5.93;;;3.53;;
25627;SDS011;40915;50.826;4.356;2023-12-04T04:02:49;6.53;;;3.93;;
25627;SDS011;40915;50.826;4.356;2023-12-04T04:05:14;4.80;;;2.90;;
25627;SDS011;40915;50.826;4.356;2023-12-04T04:07:40;5.60;;;3.30;;
25627;SDS011;40915;50.826;4.356;2023-12-04T04:10:06;5.80;;;3.37;;
25627;SDS011;40915;50.826;4.356;2023-12-04T04:12:33;5.73;;;3.47;;
25627;SDS011;40915;50.826;4.356;2023-12-04T04:14:58;6.40;;;3.53;;
25627;SDS011;40915;50.826;4.356;2023-12-04T04:17:24;4.80;;;3.30;;
25627;SDS011;40915;50.826;4.356;2023-12-04T04:19:51;6.17;;;3.57;;
25627;SDS011;40915;50.826;4.356;2023-12-04T04:22:20;6.37;;;3.80;;
25627;SDS011;40915;50.826;4.356;2023-12-04T04:24:46;6.47;;;3.87;;
25627;SDS011;40915;50.826;4.356;2023-12-04T04:27:12;6.37;;;3.93;;
25627;SDS011;40915;50.826;4.356;2023-12-04T04:29:38;5.40;;;3.33;;
25627;SDS011;40915;50.826;4.356;2023-12-04T04:32:04;6.03;;;3.40;;
25627;SDS011;40915;50.826;4.356;2023-12-04T04:34:30;5.17;;;3.50;;
25627;SDS011;40915;50.826;4.356;2023-12-04T04:36:55;5.43;;;3.00;;
25627;SDS011;40915;50.826;4.356;2023-12-04T04:39:21;5.77;;;3.60;;
25627;SDS011;40915;50.826;4.356;2023-12-04T04:41:47;5.00;;;3.37;;
25627;SDS011;40915;50.826;4.356;2023-12-04T04:44:12;7.93;;;3.33;;
25627;SDS011;40915;50.826;4.356;2023-12-04T04:46:38;7.13;;;3.63;;
25627;SDS011;40915;50.826;4.356;2023-12-04T04:49:04;5.03;;;3.07;;
25627;SDS011;40915;50.826;4.356;2023-12-04T04:51:31;6.87;;;4.00;;
25627;SDS011;40915;50.826;4.356;2023-12-04T04:53:58;4.83;;;3.13;;
25627;SDS011;40915;50.826;4.356;2023-12-04T04:56:24;4.83;;;3.10;;
25627;SDS011;40915;50.826;4.356;2023-12-04T04:58:50;6.00;;;3.37;;
25627;SDS011;40915;50.826;4.356;2023-12-04T05:01:16;4.77;;;3.13;;
25627;SDS011;40915;50.826;4.356;2023-12-04T05:03:41;4.23;;;3.00;;
25627;SDS011;40915;50.826;4.356;2023-12-04T05:06:07;5.77;;;3.30;;
25627;SDS011;40915;50.826;4.356;2023-12-04T05:08:33;7.27;;;3.60;;
25627;SDS011;40915;50.826;4.356;2023-12-04T05:11:00;4.30;;;2.93;;
25627;SDS011;40915;50.826;4.356;2023-12-04T05:13:25;4.93;;;3.00;;
25627;SDS011;40915;50.826;4.356;2023-12-04T05:15:51;5.77;;;3.03;;
25627;SDS011;40915;50.826;4.356;2023-12-04T05:18:17;5.27;;;3.20;;
25627;SDS011;40915;50.826;4.356;2023-12-04T05:20:43;6.60;;;3.27;;
25627;SDS011;40915;50.826;4.356;2023-12-04T05:23:09;4.47;;;2.73;;
25627;SDS011;40915;50.826;4.356;2023-12-04T05:25:34;4.40;;;3.00;;
25627;SDS011;40915;50.826;4.356;2023-12-04T05:28:00;4.73;;;3.20;;
25627;SDS011;40915;50.826;4.356;2023-12-04T05:30:25;3.93;;;2.73;;
25627;SDS011;40915;50.826;4.356;2023-12-04T05:32:51;4.50;;;2.83;;
25627;SDS011;40915;50.826;4.356;2023-12-04T05:35:17;4.67;;;2.90;;
25627;SDS011;40915;50.826;4.356;2023-12-04T05:37:42;4.00;;;2.60;;
25627;SDS011;40915;50.826;4.356;2023-12-04T05:40:08;4.73;;;2.73;;
25627;SDS011;40915;50.826;4.356;2023-12-04T05:42:36;4.13;;;2.73;;
25627;SDS011;40915;50.826;4.356;2023-12-04T05:45:02;5.30;;;2.80;;
25627;SDS011;40915;50.826;4.356;2023-12-04T05:47:28;5.47;;;3.03;;
25627;SDS011;40915;50.826;4.356;2023-12-04T05:49:53;4.13;;;2.80;;
25627;SDS011;40915;50.826;4.356;2023-12-04T05:52:19;4.90;;;2.90;;
25627;SDS011;40915;50.826;4.356;2023-12-04T05:54:45;4.60;;;2.87;;
25627;SDS011;40915;50.826;4.356;2023-12-04T05:57:11;3.97;;;2.90;;
25627;SDS011;40915;50.826;4.356;2023-12-04T05:59:36;3.77;;;2.43;;
25627;SDS011;40915;50.826;4.356;2023-12-04T06:02:02;4.13;;;2.70;;
25627;SDS011;40915;50.826;4.356;2023-12-04T06:04:28;5.70;;;3.03;;
25627;SDS011;40915;50.826;4.356;2023-12-04T06:06:54;4.33;;;2.83;;
25627;SDS011;40915;50.826;4.356;2023-12-04T06:09:19;4.47;;;2.90;;
25627;SDS011;40915;50.826;4.356;2023-12-04T06:11:45;4.40;;;2.63;;
25627;SDS011;40915;50.826;4.356;2023-12-04T06:14:11;6.60;;;3.10;;
25627;SDS011;40915;50.826;4.356;2023-12-04T06:16:37;5.10;;;2.97;;
25627;SDS011;40915;50.826;4.356;2023-12-04T06:19:02;4.37;;;2.97;;
25627;SDS011;40915;50.826;4.356;2023-12-04T06:21:29;5.53;;;3.00;;
25627;SDS011;40915;50.826;4.356;2023-12-04T06:23:55;4.20;;;3.20;;
25627;SDS011;40915;50.826;4.356;2023-12-04T06:26:22;5.57;;;3.20;;
25627;SDS011;40915;50.826;4.356;2023-12-04T06:28:48;4.27;;;2.60;;
25627;SDS011;40915;50.826;4.356;2023-12-04T06:31:14;6.63;;;3.37;;
25627;SDS011;40915;50.826;4.356;2023-12-04T06:33:40;5.10;;;3.20;;
25627;SDS011;40915;50.826;4.356;2023-12-04T06:36:06;9.90;;;4.00;;
25627;SDS011;40915;50.826;4.356;2023-12-04T06:38:33;5.83;;;3.27;;
25627;SDS011;40915;50.826;4.356;2023-12-04T06:41:04;6.83;;;3.63;;
25627;SDS011;40915;50.826;4.356;2023-12-04T06:43:30;5.43;;;3.20;;
25627;SDS011;40915;50.826;4.356;2023-12-04T06:45:56;5.57;;;3.33;;
25627;SDS011;40915;50.826;4.356;2023-12-04T06:48:23;7.73;;;3.80;;
25627;SDS011;40915;50.826;4.356;2023-12-04T06:50:50;6.90;;;3.50;;
25627;SDS011;40915;50.826;4.356;2023-12-04T06:53:15;7.33;;;3.20;;
25627;SDS011;40915;50.826;4.356;2023-12-04T06:55:41;5.43;;;3.40;;
25627;SDS011;40915;50.826;4.356;2023-12-04T06:58:07;6.07;;;3.47;;
25627;SDS011;40915;50.826;4.356;2023-12-04T07:00:32;5.27;;;3.80;;
25627;SDS011;40915;50.826;4.356;2023-12-04T07:02:58;15.07;;;4.53;;
25627;SDS011;40915;50.826;4.356;2023-12-04T07:05:24;6.57;;;3.37;;
25627;SDS011;40915;50.826;4.356;2023-12-04T07:07:50;4.10;;;2.97;;
25627;SDS011;40915;50.826;4.356;2023-12-04T07:10:16;6.97;;;3.97;;
25627;SDS011;40915;50.826;4.356;2023-12-04T07:12:42;6.43;;;3.60;;
25627;SDS011;40915;50.826;4.356;2023-12-04T07:15:08;5.70;;;3.50;;
25627;SDS011;40915;50.826;4.356;2023-12-04T07:17:35;10.37;;;3.73;;
25627;SDS011;40915;50.826;4.356;2023-12-04T07:20:03;5.17;;;3.40;;
25627;SDS011;40915;50.826;4.356;2023-12-04T07:22:31;5.53;;;3.60;;
25627;SDS011;40915;50.826;4.356;2023-12-04T07:24:57;7.60;;;3.50;;
25627;SDS011;40915;50.826;4.356;2023-12-04T07:27:23;6.50;;;3.80;;
25627;SDS011;40915;50.826;4.356;2023-12-04T07:29:49;5.00;;;3.50;;
25627;SDS011;40915;50.826;4.356;2023-12-04T07:32:15;4.63;;;3.57;;
25627;SDS011;40915;50.826;4.356;2023-12-04T07:34:40;4.77;;;3.43;;
25627;SDS011;40915;50.826;4.356;2023-12-04T07:37:06;6.13;;;3.70;;
25627;SDS011;40915;50.826;4.356;2023-12-04T07:39:32;5.80;;;3.70;;
25627;SDS011;40915;50.826;4.356;2023-12-04T07:41:58;9.67;;;3.77;;
25627;SDS011;40915;50.826;4.356;2023-12-04T07:44:23;7.13;;;3.67;;
25627;SDS011;40915;50.826;4.356;2023-12-04T07:46:49;7.93;;;3.50;;
25627;SDS011;40915;50.826;4.356;2023-12-04T07:49:14;6.03;;;3.93;;
25627;SDS011;40915;50.826;4.356;2023-12-04T07:51:40;5.63;;;3.77;;
25627;SDS011;40915;50.826;4.356;2023-12-04T07:54:06;8.70;;;4.53;;
25627;SDS011;40915;50.826;4.356;2023-12-04T07:56:31;5.97;;;3.70;;
25627;SDS011;40915;50.826;4.356;2023-12-04T07:58:57;7.07;;;3.60;;
25627;SDS011;40915;50.826;4.356;2023-12-04T08:01:23;6.83;;;3.87;;
25627;SDS011;40915;50.826;4.356;2023-12-04T08:03:49;6.23;;;3.70;;
25627;SDS011;40915;50.826;4.356;2023-12-04T08:06:15;5.53;;;3.77;;
25627;SDS011;40915;50.826;4.356;2023-12-04T08:08:43;6.03;;;4.00;;
25627;SDS011;40915;50.826;4.356;2023-12-04T08:11:11;6.03;;;3.83;;
25627;SDS011;40915;50.826;4.356;2023-12-04T08:13:38;5.90;;;3.77;;
25627;SDS011;40915;50.826;4.356;2023-12-04T08:16:04;6.23;;;3.73;;
25627;SDS011;40915;50.826;4.356;2023-12-04T08:18:37;7.47;;;3.93;;
25627;SDS011;40915;50.826;4.356;2023-12-04T08:21:03;4.90;;;3.23;;
25627;SDS011;40915;50.826;4.356;2023-12-04T08:23:28;7.67;;;4.40;;
25627;SDS011;40915;50.826;4.356;2023-12-04T08:25:54;6.67;;;4.10;;
25627;SDS011;40915;50.826;4.356;2023-12-04T08:28:20;6.27;;;4.03;;
25627;SDS011;40915;50.826;4.356;2023-12-04T08:30:45;5.33;;;3.90;;
25627;SDS011;40915;50.826;4.356;2023-12-04T08:33:12;6.30;;;3.83;;
25627;SDS011;40915;50.826;4.356;2023-12-04T08:35:38;6.93;;;3.80;;
25627;SDS011;40915;50.826;4.356;2023-12-04T08:38:03;5.33;;;3.67;;
25627;SDS011;40915;50.826;4.356;2023-12-04T08:40:29;6.03;;;4.07;;
25627;SDS011;40915;50.826;4.356;2023-12-04T08:42:55;7.67;;;4.37;;
25627;SDS011;40915;50.826;4.356;2023-12-04T08:45:20;6.63;;;4.10;;
25627;SDS011;40915;50.826;4.356;2023-12-04T08:47:46;6.33;;;4.23;;
25627;SDS011;40915;50.826;4.356;2023-12-04T08:50:11;6.53;;;4.50;;
25627;SDS011;40915;50.826;4.356;2023-12-04T08:52:37;6.50;;;3.90;;
25627;SDS011;40915;50.826;4.356;2023-12-04T08:55:03;7.30;;;4.53;;
25627;SDS011;40915;50.826;4.356;2023-12-04T08:57:31;6.93;;;4.30;;
25627;SDS011;40915;50.826;4.356;2023-12-04T08:59:56;7.67;;;4.40;;
25627;SDS011;40915;50.826;4.356;2023-12-04T09:02:22;7.90;;;4.00;;
25627;SDS011;40915;50.826;4.356;2023-12-04T09:04:47;7.13;;;4.30;;
25627;SDS011;40915;50.826;4.356;2023-12-04T09:07:13;6.77;;;4.20;;
25627;SDS011;40915;50.826;4.356;2023-12-04T09:09:39;6.87;;;4.23;;
25627;SDS011;40915;50.826;4.356;2023-12-04T09:12:05;8.57;;;3.90;;
25627;SDS011;40915;50.826;4.356;2023-12-04T09:14:32;7.23;;;4.10;;
25627;SDS011;40915;50.826;4.356;2023-12-04T09:16:58;6.07;;;4.03;;
25627;SDS011;40915;50.826;4.356;2023-12-04T09:19:23;5.63;;;4.00;;
25627;SDS011;40915;50.826;4.356;2023-12-04T09:21:49;6.80;;;4.33;;
25627;SDS011;40915;50.826;4.356;2023-12-04T09:24:14;8.40;;;4.27;;
25627;SDS011;40915;50.826;4.356;2023-12-04T09:26:40;4.77;;;3.47;;
25627;SDS011;40915;50.826;4.356;2023-12-04T09:29:06;5.03;;;3.60;;
25627;SDS011;40915;50.826;4.356;2023-12-04T09:31:32;8.63;;;4.00;;
25627;SDS011;40915;50.826;4.356;2023-12-04T09:33:57;7.10;;;4.30;;
25627;SDS011;40915;50.826;4.356;2023-12-04T09:36:23;6.33;;;3.57;;
25627;SDS011;40915;50.826;4.356;2023-12-04T09:38:49;6.07;;;4.10;;
25627;SDS011;40915;50.826;4.356;2023-12-04T09:41:14;6.33;;;3.93;;
25627;SDS011;40915;50.826;4.356;2023-12-04T09:43:41;7.50;;;4.20;;
25627;SDS011;40915;50.826;4.356;2023-12-04T09:46:07;7.10;;;4.50;;
25627;SDS011;40915;50.826;4.356;2023-12-04T09:48:34;5.93;;;4.03;;
25627;SDS011;40915;50.826;4.356;2023-12-04T09:51:01;8.40;;;4.73;;
25627;SDS011;40915;50.826;4.356;2023-12-04T09:53:27;8.50;;;4.83;;
25627;SDS011;40915;50.826;4.356;2023-12-04T09:55:57;7.17;;;4.40;;
25627;SDS011;40915;50.826;4.356;2023-12-04T09:58:25;6.83;;;4.70;;
25627;SDS011;40915;50.826;4.356;2023-12-04T10:00:54;7.60;;;4.97;;
25627;SDS011;40915;50.826;4.356;2023-12-04T10:03:20;7.50;;;4.77;;
25627;SDS011;40915;50.826;4.356;2023-12-04T10:05:45;7.50;;;4.77;;
25627;SDS011;40915;50.826;4.356;2023-12-04T10:08:11;6.87;;;4.60;;
25627;SDS011;40915;50.826;4.356;2023-12-04T10:10:37;8.83;;;5.73;;
25627;SDS011;40915;50.826;4.356;2023-12-04T10:13:03;24.27;;;11.27;;
25627;SDS011;40915;50.826;4.356;2023-12-04T10:15:28;8.20;;;5.00;;
25627;SDS011;40915;50.826;4.356;2023-12-04T10:17:54;8.63;;;5.60;;
25627;SDS011;40915;50.826;4.356;2023-12-04T10:20:20;9.50;;;5.50;;
25627;SDS011;40915;50.826;4.356;2023-12-04T10:22:53;10.03;;;5.93;;
25627;SDS011;40915;50.826;4.356;2023-12-04T10:25:24;9.77;;;5.13;;
25627;SDS011;40915;50.826;4.356;2023-12-04T10:27:54;8.47;;;5.30;;
25627;SDS011;40915;50.826;4.356;2023-12-04T10:30:34;7.57;;;5.03;;
25627;SDS011;40915;50.826;4.356;2023-12-04T10:33:01;10.23;;;5.60;;
25627;SDS011;40915;50.826;4.356;2023-12-04T10:35:34;7.33;;;5.10;;
25627;SDS011;40915;50.826;4.356;2023-12-04T10:38:04;9.03;;;5.77;;
25627;SDS011;40915;50.826;4.356;2023-12-04T10:40:32;7.57;;;4.97;;
25627;SDS011;40915;50.826;4.356;2023-12-04T10:43:10;7.30;;;5.27;;
25627;SDS011;40915;50.826;4.356;2023-12-04T10:45:44;8.47;;;4.90;;
25627;SDS011;40915;50.826;4.356;2023-12-04T10:48:11;9.00;;;5.87;;
25627;SDS011;40915;50.826;4.356;2023-12-04T10:50:45;11.37;;;5.40;;
25627;SDS011;40915;50.826;4.356;2023-12-04T10:53:12;7.47;;;5.20;;
25627;SDS011;40915;50.826;4.356;2023-12-04T10:55:40;6.87;;;4.83;;
25627;SDS011;40915;50.826;4.356;2023-12-04T10:58:08;10.13;;;5.20;;
25627;SDS011;40915;50.826;4.356;2023-12-04T11:00:45;9.27;;;5.60;;
25627;SDS011;40915;50.826;4.356;2023-12-04T11:03:13;9.53;;;5.73;;
25627;SDS011;40915;50.826;4.356;2023-12-04T11:05:44;8.50;;;5.30;;
25627;SDS011;40915;50.826;4.356;2023-12-04T11:08:16;7.10;;;4.60;;
25627;SDS011;40915;50.826;4.356;2023-12-04T11:11:18;8.03;;;5.07;;
25627;SDS011;40915;50.826;4.356;2023-12-04T11:13:37;7.83;;;4.87;;
25627;SDS011;40915;50.826;4.356;2023-12-04T11:18:38;7.80;;;4.90;;
25627;SDS011;40915;50.826;4.356;2023-12-04T11:21:07;8.43;;;5.20;;
25627;SDS011;40915;50.826;4.356;2023-12-04T11:23:34;6.00;;;4.40;;
25627;SDS011;40915;50.826;4.356;2023-12-04T11:26:01;7.57;;;5.10;;
25627;SDS011;40915;50.826;4.356;2023-12-04T11:28:29;6.63;;;4.77;;
25627;SDS011;40915;50.826;4.356;2023-12-04T11:30:56;6.87;;;4.63;;
25627;SDS011;40915;50.826;4.356;2023-12-04T11:33:23;7.10;;;4.80;;
25627;SDS011;40915;50.826;4.356;2023-12-04T11:35:49;6.97;;;4.57;;
25627;SDS011;40915;50.826;4.356;2023-12-04T11:38:18;6.60;;;4.40;;
25627;SDS011;40915;50.826;4.356;2023-12-04T11:40:45;6.50;;;4.40;;
25627;SDS011;40915;50.826;4.356;2023-12-04T11:43:24;7.20;;;4.17;;
25627;SDS011;40915;50.826;4.356;2023-12-04T11:45:50;7.47;;;4.47;;
25627;SDS011;40915;50.826;4.356;2023-12-04T11:48:16;9.13;;;4.53;;
25627;SDS011;40915;50.826;4.356;2023-12-04T11:50:50;7.87;;;5.50;;
25627;SDS011;40915;50.826;4.356;2023-12-04T11:53:16;5.67;;;4.03;;
25627;SDS011;40915;50.826;4.356;2023-12-04T11:55:41;6.43;;;4.40;;
25627;SDS011;40915;50.826;4.356;2023-12-04T11:58:11;7.17;;;4.70;;
25627;SDS011;40915;50.826;4.356;2023-12-04T12:00:37;6.07;;;4.13;;
25627;SDS011;40915;50.826;4.356;2023-12-04T12:03:06;5.67;;;4.00;;
25627;SDS011;40915;50.826;4.356;2023-12-04T12:05:34;6.83;;;4.43;;
25627;SDS011;40915;50.826;4.356;2023-12-04T12:08:01;5.77;;;4.30;;
25627;SDS011;40915;50.826;4.356;2023-12-04T12:10:28;7.40;;;4.10;;
25627;SDS011;40915;50.826;4.356;2023-12-04T12:12:54;8.33;;;4.17;;
25627;SDS011;40915;50.826;4.356;2023-12-04T12:15:20;7.33;;;4.30;;
25627;SDS011;40915;50.826;4.356;2023-12-04T12:17:46;5.30;;;3.77;;
25627;SDS011;40915;50.826;4.356;2023-12-04T12:20:13;4.87;;;3.70;;
25627;SDS011;40915;50.826;4.356;2023-12-04T12:22:39;6.50;;;4.10;;
25627;SDS011;40915;50.826;4.356;2023-12-04T12:25:08;5.23;;;3.60;;
25627;SDS011;40915;50.826;4.356;2023-12-04T12:27:35;6.27;;;4.40;;
25627;SDS011;40915;50.826;4.356;2023-12-04T12:30:05;5.27;;;3.90;;
25627;SDS011;40915;50.826;4.356;2023-12-04T12:32:31;5.10;;;3.80;;
25627;SDS011;40915;50.826;4.356;2023-12-04T12:35:03;8.27;;;4.20;;
25627;SDS011;40915;50.826;4.356;2023-12-04T12:37:29;5.30;;;3.60;;
25627;SDS011;40915;50.826;4.356;2023-12-04T12:39:55;6.30;;;3.53;;
25627;SDS011;40915;50.826;4.356;2023-12-04T12:42:26;6.30;;;4.27;;
25627;SDS011;40915;50.826;4.356;2023-12-04T12:44:53;6.27;;;4.03;;
25627;SDS011;40915;50.826;4.356;2023-12-04T12:47:20;5.00;;;3.57;;
25627;SDS011;40915;50.826;4.356;2023-12-04T12:49:46;4.67;;;3.63;;
25627;SDS011;40915;50.826;4.356;2023-12-04T12:52:12;6.27;;;4.50;;
25627;SDS011;40915;50.826;4.356;2023-12-04T12:54:38;5.93;;;3.87;;
25627;SDS011;40915;50.826;4.356;2023-12-04T12:57:07;4.67;;;3.30;;
25627;SDS011;40915;50.826;4.356;2023-12-04T12:59:34;6.17;;;4.23;;
25627;SDS011;40915;50.826;4.356;2023-12-04T13:02:00;6.23;;;3.83;;
25627;SDS011;40915;50.826;4.356;2023-12-04T13:04:33;7.07;;;4.10;;
25627;SDS011;40915;50.826;4.356;2023-12-04T13:07:02;4.63;;;3.60;;
25627;SDS011;40915;50.826;4.356;2023-12-04T13:09:30;4.97;;;3.80;;
25627;SDS011;40915;50.826;4.356;2023-12-04T13:11:56;6.60;;;3.60;;
25627;SDS011;40915;50.826;4.356;2023-12-04T13:14:22;5.37;;;3.80;;
25627;SDS011;40915;50.826;4.356;2023-12-04T13:16:47;9.23;;;4.17;;
25627;SDS011;40915;50.826;4.356;2023-12-04T13:19:13;5.47;;;3.90;;
25627;SDS011;40915;50.826;4.356;2023-12-04T13:21:38;6.33;;;3.97;;
25627;SDS011;40915;50.826;4.356;2023-12-04T13:24:04;5.23;;;3.77;;
25627;SDS011;40915;50.826;4.356;2023-12-04T13:26:32;5.33;;;3.73;;
25627;SDS011;40915;50.826;4.356;2023-12-04T13:28:58;5.97;;;4.40;;
25627;SDS011;40915;50.826;4.356;2023-12-04T13:31:24;4.53;;;3.30;;
25627;SDS011;40915;50.826;4.356;2023-12-04T13:33:50;5.70;;;3.67;;
25627;SDS011;40915;50.826;4.356;2023-12-04T13:36:16;5.53;;;3.00;;
25627;SDS011;40915;50.826;4.356;2023-12-04T13:38:41;5.20;;;3.60;;
25627;SDS011;40915;50.826;4.356;2023-12-04T13:41:07;4.07;;;3.23;;
25627;SDS011;40915;50.826;4.356;2023-12-04T13:43:58;7.23;;;4.13;;
25627;SDS011;40915;50.826;4.356;2023-12-04T13:46:27;5.57;;;3.53;;
25627;SDS011;40915;50.826;4.356;2023-12-04T13:48:54;5.13;;;3.97;;
25627;SDS011;40915;50.826;4.356;2023-12-04T13:51:20;5.23;;;3.70;;
25627;SDS011;40915;50.826;4.356;2023-12-04T13:53:46;7.60;;;4.03;;
25627;SDS011;40915;50.826;4.356;2023-12-04T13:56:15;6.23;;;4.33;;
25627;SDS011;40915;50.826;4.356;2023-12-04T13:58:47;6.40;;;3.87;;
25627;SDS011;40915;50.826;4.356;2023-12-04T14:01:18;5.10;;;3.67;;
25627;SDS011;40915;50.826;4.356;2023-12-04T14:03:48;5.53;;;3.90;;
25627;SDS011;40915;50.826;4.356;2023-12-04T14:06:13;5.20;;;3.70;;
25627;SDS011;40915;50.826;4.356;2023-12-04T14:08:41;11.17;;;6.60;;
25627;SDS011;40915;50.826;4.356;2023-12-04T14:11:07;27.43;;;11.00;;
25627;SDS011;40915;50.826;4.356;2023-12-04T14:13:33;10.47;;;6.90;;
25627;SDS011;40915;50.826;4.356;2023-12-04T14:15:59;7.33;;;5.40;;
25627;SDS011;40915;50.826;4.356;2023-12-04T14:18:26;9.63;;;5.30;;
25627;SDS011;40915;50.826;4.356;2023-12-04T14:20:52;9.10;;;5.60;;
25627;SDS011;40915;50.826;4.356;2023-12-04T14:23:17;6.73;;;4.20;;
25627;SDS011;40915;50.826;4.356;2023-12-04T14:25:44;8.10;;;3.83;;
25627;SDS011;40915;50.826;4.356;2023-12-04T14:28:10;5.50;;;4.17;;
25627;SDS011;40915;50.826;4.356;2023-12-04T14:30:36;6.10;;;4.10;;
25627;SDS011;40915;50.826;4.356;2023-12-04T14:33:01;5.77;;;4.00;;
25627;SDS011;40915;50.826;4.356;2023-12-04T14:35:27;5.73;;;4.10;;
25627;SDS011;40915;50.826;4.356;2023-12-04T14:37:52;7.97;;;4.37;;
25627;SDS011;40915;50.826;4.356;2023-12-04T14:40:18;4.97;;;3.90;;
25627;SDS011;40915;50.826;4.356;2023-12-04T14:42:45;5.30;;;3.90;;
25627;SDS011;40915;50.826;4.356;2023-12-04T14:45:11;6.13;;;4.43;;
25627;SDS011;40915;50.826;4.356;2023-12-04T14:47:38;9.13;;;4.00;;